Terminal Aerodrome Forecast
Issued by NWS

Home | Current Version | Previous Version | Graphics & Text | Print | Product List | Glossary Off
Versions: 1 2 3 4 5 6 7 8 9 10 11 12 13 14 15 16 17 18 19 20 21 22 23 24 25 26 27

000
FTUS45 KGGW 302322
TAFGDV
TAF
KGDV 302322Z 3100/3124 VRB06KT P6SM BKN100
     FM310400 05006KT 6SM FU BKN250
     FM311200 29014KT 6SM FU FEW120
      AMD LTD TO CLD VIS AND WIND=

USA.gov is the U.S. government's official web portal to all federal, state and local government web resources and services.